sensor_id;sensor_type;location;lat;lon;timestamp;temperature;humidity
20278;DHT22;10298;49.716;17.806;2022-07-22T00:01:59;21.20;99.90
20278;DHT22;10298;49.716;17.806;2022-07-22T00:04:27;21.30;99.90
20278;DHT22;10298;49.716;17.806;2022-07-22T00:06:53;21.40;99.90
20278;DHT22;10298;49.716;17.806;2022-07-22T00:09:20;21.30;99.90
20278;DHT22;10298;49.716;17.806;2022-07-22T00:11:47;21.30;99.90
20278;DHT22;10298;49.716;17.806;2022-07-22T00:14:14;21.30;99.90
20278;DHT22;10298;49.716;17.806;2022-07-22T00:16:41;21.50;99.90
20278;DHT22;10298;49.716;17.806;2022-07-22T00:19:08;21.60;99.90
20278;DHT22;10298;49.716;17.806;2022-07-22T00:21:35;21.60;99.90
20278;DHT22;10298;49.716;17.806;2022-07-22T00:24:03;21.50;99.90
20278;DHT22;10298;49.716;17.806;2022-07-22T00:26:31;21.40;99.90
20278;DHT22;10298;49.716;17.806;2022-07-22T00:28:58;21.40;99.90
20278;DHT22;10298;49.716;17.806;2022-07-22T00:31:25;21.40;99.90
20278;DHT22;10298;49.716;17.806;2022-07-22T00:33:52;21.30;99.90
20278;DHT22;10298;49.716;17.806;2022-07-22T00:36:19;21.30;99.90
20278;DHT22;10298;49.716;17.806;2022-07-22T00:38:46;21.30;99.90
20278;DHT22;10298;49.716;17.806;2022-07-22T00:41:13;21.40;99.90
20278;DHT22;10298;49.716;17.806;2022-07-22T00:46:22;21.40;99.90
20278;DHT22;10298;49.716;17.806;2022-07-22T00:48:49;21.30;99.90
20278;DHT22;10298;49.716;17.806;2022-07-22T00:51:17;21.20;99.90
20278;DHT22;10298;49.716;17.806;2022-07-22T00:53:46;21.30;99.90
20278;DHT22;10298;49.716;17.806;2022-07-22T00:56:13;21.30;99.90
20278;DHT22;10298;49.716;17.806;2022-07-22T00:58:40;21.10;99.90
20278;DHT22;10298;49.716;17.806;2022-07-22T01:01:07;20.80;99.90
20278;DHT22;10298;49.716;17.806;2022-07-22T01:03:35;20.50;99.90
20278;DHT22;10298;49.716;17.806;2022-07-22T01:06:05;20.50;99.90
20278;DHT22;10298;49.716;17.806;2022-07-22T01:08:33;20.50;99.90
20278;DHT22;10298;49.716;17.806;2022-07-22T01:11:26;20.50;99.90
20278;DHT22;10298;49.716;17.806;2022-07-22T01:13:54;20.50;99.90
20278;DHT22;10298;49.716;17.806;2022-07-22T01:16:24;20.30;99.90
20278;DHT22;10298;49.716;17.806;2022-07-22T01:18:52;20.20;99.90
20278;DHT22;10298;49.716;17.806;2022-07-22T01:21:19;20.30;99.90
20278;DHT22;10298;49.716;17.806;2022-07-22T01:23:46;20.40;99.90
20278;DHT22;10298;49.716;17.806;2022-07-22T01:26:14;20.40;99.90
20278;DHT22;10298;49.716;17.806;2022-07-22T01:28:41;20.40;99.90
20278;DHT22;10298;49.716;17.806;2022-07-22T01:31:08;20.50;99.90
20278;DHT22;10298;49.716;17.806;2022-07-22T01:33:36;20.50;99.90
20278;DHT22;10298;49.716;17.806;2022-07-22T01:36:04;20.50;99.90
20278;DHT22;10298;49.716;17.806;2022-07-22T01:38:31;20.40;99.90
20278;DHT22;10298;49.716;17.806;2022-07-22T01:40:58;20.40;99.90
20278;DHT22;10298;49.716;17.806;2022-07-22T01:43:25;20.30;99.90
20278;DHT22;10298;49.716;17.806;2022-07-22T01:45:52;20.20;99.90
20278;DHT22;10298;49.716;17.806;2022-07-22T01:48:20;20.10;99.90
20278;DHT22;10298;49.716;17.806;2022-07-22T01:50:48;20.10;99.90
20278;DHT22;10298;49.716;17.806;2022-07-22T01:53:16;20.00;99.90
20278;DHT22;10298;49.716;17.806;2022-07-22T01:55:43;19.90;99.90
20278;DHT22;10298;49.716;17.806;2022-07-22T01:58:10;19.90;99.90
20278;DHT22;10298;49.716;17.806;2022-07-22T02:00:38;19.80;99.90
20278;DHT22;10298;49.716;17.806;2022-07-22T02:03:05;19.90;99.90
20278;DHT22;10298;49.716;17.806;2022-07-22T02:05:33;19.90;99.90
20278;DHT22;10298;49.716;17.806;2022-07-22T02:08:01;19.90;99.90
20278;DHT22;10298;49.716;17.806;2022-07-22T02:10:29;19.70;99.90
20278;DHT22;10298;49.716;17.806;2022-07-22T02:12:59;19.50;99.90
20278;DHT22;10298;49.716;17.806;2022-07-22T02:15:27;19.50;99.90
20278;DHT22;10298;49.716;17.806;2022-07-22T02:17:54;19.40;99.90
20278;DHT22;10298;49.716;17.806;2022-07-22T02:20:22;19.40;99.90
20278;DHT22;10298;49.716;17.806;2022-07-22T02:22:49;19.60;99.90
20278;DHT22;10298;49.716;17.806;2022-07-22T02:25:16;19.60;99.90
20278;DHT22;10298;49.716;17.806;2022-07-22T02:27:43;19.50;99.90
20278;DHT22;10298;49.716;17.806;2022-07-22T02:30:10;19.50;99.90
20278;DHT22;10298;49.716;17.806;2022-07-22T02:32:38;19.50;99.90
20278;DHT22;10298;49.716;17.806;2022-07-22T02:35:05;19.50;99.90
20278;DHT22;10298;49.716;17.806;2022-07-22T02:37:32;19.50;99.90
20278;DHT22;10298;49.716;17.806;2022-07-22T02:39:59;19.40;99.90
20278;DHT22;10298;49.716;17.806;2022-07-22T02:42:27;19.30;99.90
20278;DHT22;10298;49.716;17.806;2022-07-22T02:44:54;19.40;99.90
20278;DHT22;10298;49.716;17.806;2022-07-22T02:47:21;19.50;99.90
20278;DHT22;10298;49.716;17.806;2022-07-22T02:49:48;19.30;99.90
20278;DHT22;10298;49.716;17.806;2022-07-22T02:52:15;19.30;99.90
20278;DHT22;10298;49.716;17.806;2022-07-22T02:54:41;19.40;99.90
20278;DHT22;10298;49.716;17.806;2022-07-22T02:57:08;19.60;99.90
20278;DHT22;10298;49.716;17.806;2022-07-22T02:59:36;19.60;99.90
20278;DHT22;10298;49.716;17.806;2022-07-22T03:02:03;19.70;99.90
20278;DHT22;10298;49.716;17.806;2022-07-22T03:04:30;19.70;99.90
20278;DHT22;10298;49.716;17.806;2022-07-22T03:06:57;19.70;99.90
20278;DHT22;10298;49.716;17.806;2022-07-22T03:09:24;19.80;99.90
20278;DHT22;10298;49.716;17.806;2022-07-22T03:11:51;19.80;99.90
20278;DHT22;10298;49.716;17.806;2022-07-22T03:14:17;19.80;99.90
20278;DHT22;10298;49.716;17.806;2022-07-22T03:16:45;19.80;99.90
20278;DHT22;10298;49.716;17.806;2022-07-22T03:19:12;19.90;99.90
20278;DHT22;10298;49.716;17.806;2022-07-22T03:21:39;19.90;99.90
20278;DHT22;10298;49.716;17.806;2022-07-22T03:24:06;19.90;99.90
20278;DHT22;10298;49.716;17.806;2022-07-22T03:26:33;19.90;99.90
20278;DHT22;10298;49.716;17.806;2022-07-22T03:28:59;19.80;99.90
20278;DHT22;10298;49.716;17.806;2022-07-22T03:31:27;19.80;99.90
20278;DHT22;10298;49.716;17.806;2022-07-22T03:33:54;19.80;99.90
20278;DHT22;10298;49.716;17.806;2022-07-22T03:36:21;19.70;99.90
20278;DHT22;10298;49.716;17.806;2022-07-22T03:38:48;19.70;99.90
20278;DHT22;10298;49.716;17.806;2022-07-22T03:41:14;19.60;99.90
20278;DHT22;10298;49.716;17.806;2022-07-22T03:43:41;19.50;99.90
20278;DHT22;10298;49.716;17.806;2022-07-22T03:46:08;19.60;99.90
20278;DHT22;10298;49.716;17.806;2022-07-22T03:48:35;19.60;99.90
20278;DHT22;10298;49.716;17.806;2022-07-22T03:51:02;19.60;99.90
20278;DHT22;10298;49.716;17.806;2022-07-22T03:53:29;19.60;99.90
20278;DHT22;10298;49.716;17.806;2022-07-22T03:55:56;19.60;99.90
20278;DHT22;10298;49.716;17.806;2022-07-22T03:58:23;19.60;99.90
20278;DHT22;10298;49.716;17.806;2022-07-22T04:00:51;19.60;99.90
20278;DHT22;10298;49.716;17.806;2022-07-22T04:03:18;19.60;99.90
20278;DHT22;10298;49.716;17.806;2022-07-22T04:05:45;19.60;99.90
20278;DHT22;10298;49.716;17.806;2022-07-22T04:08:13;19.70;99.90
20278;DHT22;10298;49.716;17.806;2022-07-22T04:10:39;19.80;99.90
20278;DHT22;10298;49.716;17.806;2022-07-22T04:13:06;19.70;99.90
20278;DHT22;10298;49.716;17.806;2022-07-22T04:15:33;19.90;99.90
20278;DHT22;10298;49.716;17.806;2022-07-22T04:18:00;19.90;99.90
20278;DHT22;10298;49.716;17.806;2022-07-22T04:20:27;20.00;99.90
20278;DHT22;10298;49.716;17.806;2022-07-22T04:22:54;20.10;99.90
20278;DHT22;10298;49.716;17.806;2022-07-22T04:25:21;20.20;99.90
20278;DHT22;10298;49.716;17.806;2022-07-22T04:27:48;20.20;99.90
20278;DHT22;10298;49.716;17.806;2022-07-22T04:30:15;20.30;99.90
20278;DHT22;10298;49.716;17.806;2022-07-22T04:32:42;20.40;99.90
20278;DHT22;10298;49.716;17.806;2022-07-22T04:35:09;20.40;99.90
20278;DHT22;10298;49.716;17.806;2022-07-22T04:37:36;20.50;99.90
20278;DHT22;10298;49.716;17.806;2022-07-22T04:40:03;20.60;99.90
20278;DHT22;10298;49.716;17.806;2022-07-22T04:42:31;20.70;99.90
20278;DHT22;10298;49.716;17.806;2022-07-22T04:44:57;20.80;99.90
20278;DHT22;10298;49.716;17.806;2022-07-22T04:47:24;20.70;99.90
20278;DHT22;10298;49.716;17.806;2022-07-22T04:49:51;20.60;99.90
20278;DHT22;10298;49.716;17.806;2022-07-22T04:52:20;20.60;99.90
20278;DHT22;10298;49.716;17.806;2022-07-22T04:54:47;20.40;99.90
20278;DHT22;10298;49.716;17.806;2022-07-22T04:57:14;20.30;99.90
20278;DHT22;10298;49.716;17.806;2022-07-22T04:59:41;20.20;99.90
20278;DHT22;10298;49.716;17.806;2022-07-22T05:02:08;20.20;99.90
20278;DHT22;10298;49.716;17.806;2022-07-22T05:04:35;20.30;99.90
20278;DHT22;10298;49.716;17.806;2022-07-22T05:07:02;20.40;99.90
20278;DHT22;10298;49.716;17.806;2022-07-22T05:09:29;20.40;99.90
20278;DHT22;10298;49.716;17.806;2022-07-22T05:11:57;20.50;99.90
20278;DHT22;10298;49.716;17.806;2022-07-22T05:14:24;20.60;99.90
20278;DHT22;10298;49.716;17.806;2022-07-22T05:16:51;20.50;99.90
20278;DHT22;10298;49.716;17.806;2022-07-22T05:19:18;20.50;99.90
20278;DHT22;10298;49.716;17.806;2022-07-22T05:21:45;20.70;99.90
20278;DHT22;10298;49.716;17.806;2022-07-22T05:24:12;20.90;99.90
20278;DHT22;10298;49.716;17.806;2022-07-22T05:26:40;22.00;99.90
20278;DHT22;10298;49.716;17.806;2022-07-22T05:29:06;22.40;99.90
20278;DHT22;10298;49.716;17.806;2022-07-22T05:31:33;23.40;99.90
20278;DHT22;10298;49.716;17.806;2022-07-22T05:34:00;23.70;99.90
20278;DHT22;10298;49.716;17.806;2022-07-22T05:36:27;24.00;99.90
20278;DHT22;10298;49.716;17.806;2022-07-22T05:38:54;25.00;99.90
20278;DHT22;10298;49.716;17.806;2022-07-22T05:41:21;23.90;99.90
20278;DHT22;10298;49.716;17.806;2022-07-22T05:43:48;23.90;99.90
20278;DHT22;10298;49.716;17.806;2022-07-22T05:46:15;23.60;99.90
20278;DHT22;10298;49.716;17.806;2022-07-22T05:48:42;23.90;99.90
20278;DHT22;10298;49.716;17.806;2022-07-22T05:51:11;24.40;99.90
20278;DHT22;10298;49.716;17.806;2022-07-22T05:53:40;24.60;99.90
20278;DHT22;10298;49.716;17.806;2022-07-22T05:56:08;24.70;99.90
20278;DHT22;10298;49.716;17.806;2022-07-22T05:58:35;25.50;99.90
20278;DHT22;10298;49.716;17.806;2022-07-22T06:01:02;25.30;99.90
20278;DHT22;10298;49.716;17.806;2022-07-22T06:03:29;25.50;99.90
20278;DHT22;10298;49.716;17.806;2022-07-22T06:05:56;25.50;99.90
20278;DHT22;10298;49.716;17.806;2022-07-22T06:08:23;25.00;99.90
20278;DHT22;10298;49.716;17.806;2022-07-22T06:10:50;24.50;99.90
20278;DHT22;10298;49.716;17.806;2022-07-22T06:13:17;24.30;99.90
20278;DHT22;10298;49.716;17.806;2022-07-22T06:15:43;24.20;99.90
20278;DHT22;10298;49.716;17.806;2022-07-22T06:18:11;24.40;99.90
20278;DHT22;10298;49.716;17.806;2022-07-22T06:20:38;24.20;99.90
20278;DHT22;10298;49.716;17.806;2022-07-22T06:23:05;24.10;99.90
20278;DHT22;10298;49.716;17.806;2022-07-22T06:25:32;23.90;99.90
20278;DHT22;10298;49.716;17.806;2022-07-22T06:28:09;23.90;99.90
20278;DHT22;10298;49.716;17.806;2022-07-22T06:30:37;23.70;99.90
20278;DHT22;10298;49.716;17.806;2022-07-22T06:33:04;23.80;99.90
20278;DHT22;10298;49.716;17.806;2022-07-22T06:35:30;23.80;99.90
20278;DHT22;10298;49.716;17.806;2022-07-22T06:37:57;23.80;99.90
20278;DHT22;10298;49.716;17.806;2022-07-22T06:40:33;23.70;99.90
20278;DHT22;10298;49.716;17.806;2022-07-22T06:43:01;23.90;99.90
20278;DHT22;10298;49.716;17.806;2022-07-22T06:45:29;23.90;99.90
20278;DHT22;10298;49.716;17.806;2022-07-22T06:47:56;23.70;99.90
20278;DHT22;10298;49.716;17.806;2022-07-22T06:50:24;23.90;99.90
20278;DHT22;10298;49.716;17.806;2022-07-22T06:52:52;23.70;99.90
20278;DHT22;10298;49.716;17.806;2022-07-22T06:55:20;23.60;99.90
20278;DHT22;10298;49.716;17.806;2022-07-22T06:57:47;24.70;99.90
20278;DHT22;10298;49.716;17.806;2022-07-22T07:00:14;24.90;99.90
20278;DHT22;10298;49.716;17.806;2022-07-22T07:02:41;24.60;99.90
20278;DHT22;10298;49.716;17.806;2022-07-22T07:05:08;24.10;99.90
20278;DHT22;10298;49.716;17.806;2022-07-22T07:07:46;24.60;99.90
20278;DHT22;10298;49.716;17.806;2022-07-22T07:10:13;25.40;99.90
20278;DHT22;10298;49.716;17.806;2022-07-22T07:12:42;25.70;99.90
20278;DHT22;10298;49.716;17.806;2022-07-22T07:15:10;25.70;99.90
20278;DHT22;10298;49.716;17.806;2022-07-22T07:17:55;25.70;99.90
20278;DHT22;10298;49.716;17.806;2022-07-22T07:20:24;25.90;99.90
20278;DHT22;10298;49.716;17.806;2022-07-22T07:22:51;25.80;99.90
20278;DHT22;10298;49.716;17.806;2022-07-22T07:25:18;26.50;99.90
20278;DHT22;10298;49.716;17.806;2022-07-22T07:27:49;26.70;99.90
20278;DHT22;10298;49.716;17.806;2022-07-22T07:30:16;26.40;99.90
20278;DHT22;10298;49.716;17.806;2022-07-22T07:32:43;26.40;99.90
20278;DHT22;10298;49.716;17.806;2022-07-22T07:35:10;26.80;99.90
20278;DHT22;10298;49.716;17.806;2022-07-22T07:37:38;27.30;99.90
20278;DHT22;10298;49.716;17.806;2022-07-22T07:40:06;26.90;99.90
20278;DHT22;10298;49.716;17.806;2022-07-22T07:42:33;27.40;99.90
20278;DHT22;10298;49.716;17.806;2022-07-22T07:45:00;27.90;99.90
20278;DHT22;10298;49.716;17.806;2022-07-22T07:47:28;27.80;99.90
20278;DHT22;10298;49.716;17.806;2022-07-22T07:49:55;27.50;99.90
20278;DHT22;10298;49.716;17.806;2022-07-22T07:52:23;27.70;99.90
20278;DHT22;10298;49.716;17.806;2022-07-22T07:54:51;27.80;99.90
20278;DHT22;10298;49.716;17.806;2022-07-22T07:57:38;27.60;99.90
20278;DHT22;10298;49.716;17.806;2022-07-22T08:00:07;27.30;99.90
20278;DHT22;10298;49.716;17.806;2022-07-22T08:02:38;27.30;99.90
20278;DHT22;10298;49.716;17.806;2022-07-22T08:05:07;27.50;99.90
20278;DHT22;10298;49.716;17.806;2022-07-22T08:07:36;28.10;99.90
20278;DHT22;10298;49.716;17.806;2022-07-22T08:10:06;28.00;99.90
20278;DHT22;10298;49.716;17.806;2022-07-22T08:12:54;27.70;99.90
20278;DHT22;10298;49.716;17.806;2022-07-22T08:15:22;27.80;99.90
20278;DHT22;10298;49.716;17.806;2022-07-22T08:17:52;28.20;99.90
20278;DHT22;10298;49.716;17.806;2022-07-22T08:20:20;28.60;99.90
20278;DHT22;10298;49.716;17.806;2022-07-22T08:22:49;28.30;99.90
20278;DHT22;10298;49.716;17.806;2022-07-22T08:25:16;27.10;99.90
20278;DHT22;10298;49.716;17.806;2022-07-22T08:27:43;27.30;99.90
20278;DHT22;10298;49.716;17.806;2022-07-22T08:30:10;27.40;99.90
20278;DHT22;10298;49.716;17.806;2022-07-22T08:32:38;27.60;99.90
20278;DHT22;10298;49.716;17.806;2022-07-22T08:35:05;27.80;99.90
20278;DHT22;10298;49.716;17.806;2022-07-22T08:37:32;28.60;99.90
20278;DHT22;10298;49.716;17.806;2022-07-22T08:39:59;28.90;99.90
20278;DHT22;10298;49.716;17.806;2022-07-22T08:42:26;29.10;99.90
20278;DHT22;10298;49.716;17.806;2022-07-22T08:44:54;28.70;99.90
20278;DHT22;10298;49.716;17.806;2022-07-22T08:47:30;28.00;99.90
20278;DHT22;10298;49.716;17.806;2022-07-22T08:50:08;27.30;99.90
20278;DHT22;10298;49.716;17.806;2022-07-22T08:52:35;28.40;99.90
20278;DHT22;10298;49.716;17.806;2022-07-22T08:55:03;29.00;99.90
20278;DHT22;10298;49.716;17.806;2022-07-22T08:57:31;29.30;99.90
20278;DHT22;10298;49.716;17.806;2022-07-22T08:59:58;28.70;99.90
20278;DHT22;10298;49.716;17.806;2022-07-22T09:02:27;27.40;99.90
20278;DHT22;10298;49.716;17.806;2022-07-22T09:05:02;28.00;99.90
20278;DHT22;10298;49.716;17.806;2022-07-22T09:07:50;27.80;99.90
20278;DHT22;10298;49.716;17.806;2022-07-22T09:10:18;27.20;99.90
20278;DHT22;10298;49.716;17.806;2022-07-22T09:12:57;28.00;99.90
20278;DHT22;10298;49.716;17.806;2022-07-22T09:15:31;28.70;99.90
20278;DHT22;10298;49.716;17.806;2022-07-22T09:17:59;28.90;99.90
20278;DHT22;10298;49.716;17.806;2022-07-22T09:20:32;28.30;99.90
20278;DHT22;10298;49.716;17.806;2022-07-22T09:22:59;28.50;99.90
20278;DHT22;10298;49.716;17.806;2022-07-22T09:25:34;28.70;99.90
20278;DHT22;10298;49.716;17.806;2022-07-22T09:30:46;28.80;99.90
20278;DHT22;10298;49.716;17.806;2022-07-22T09:33:15;30.10;99.90
20278;DHT22;10298;49.716;17.806;2022-07-22T09:35:43;29.40;99.90
20278;DHT22;10298;49.716;17.806;2022-07-22T09:38:18;29.80;99.90
20278;DHT22;10298;49.716;17.806;2022-07-22T09:40:47;30.00;99.90
20278;DHT22;10298;49.716;17.806;2022-07-22T09:43:16;29.40;99.90
20278;DHT22;10298;49.716;17.806;2022-07-22T09:45:56;29.60;99.90
20278;DHT22;10298;49.716;17.806;2022-07-22T09:48:26;29.80;99.90
20278;DHT22;10298;49.716;17.806;2022-07-22T09:50:55;30.30;99.90
20278;DHT22;10298;49.716;17.806;2022-07-22T09:53:24;29.40;99.90
20278;DHT22;10298;49.716;17.806;2022-07-22T09:55:54;29.50;99.90
20278;DHT22;10298;49.716;17.806;2022-07-22T09:58:21;30.40;99.90
20278;DHT22;10298;49.716;17.806;2022-07-22T10:00:48;30.10;99.90
20278;DHT22;10298;49.716;17.806;2022-07-22T10:03:33;30.20;99.90
20278;DHT22;10298;49.716;17.806;2022-07-22T10:06:01;30.80;99.90
20278;DHT22;10298;49.716;17.806;2022-07-22T10:08:31;31.10;99.90
20278;DHT22;10298;49.716;17.806;2022-07-22T10:11:00;29.90;99.90
20278;DHT22;10298;49.716;17.806;2022-07-22T10:13:30;30.00;99.90
20278;DHT22;10298;49.716;17.806;2022-07-22T10:15:57;30.30;99.90
20278;DHT22;10298;49.716;17.806;2022-07-22T10:18:25;30.70;98.50
20278;DHT22;10298;49.716;17.806;2022-07-22T10:21:06;30.10;99.90
20278;DHT22;10298;49.716;17.806;2022-07-22T10:23:33;30.30;99.90
20278;DHT22;10298;49.716;17.806;2022-07-22T10:26:02;30.70;99.90
20278;DHT22;10298;49.716;17.806;2022-07-22T10:28:31;29.90;99.90
20278;DHT22;10298;49.716;17.806;2022-07-22T10:31:27;29.80;99.90
20278;DHT22;10298;49.716;17.806;2022-07-22T10:33:56;30.70;99.90
20278;DHT22;10298;49.716;17.806;2022-07-22T10:39:09;30.20;99.90
20278;DHT22;10298;49.716;17.806;2022-07-22T10:41:39;29.70;99.90
20278;DHT22;10298;49.716;17.806;2022-07-22T10:44:08;29.70;99.90
20278;DHT22;10298;49.716;17.806;2022-07-22T10:47:01;29.40;99.90
20278;DHT22;10298;49.716;17.806;2022-07-22T10:49:29;29.50;99.90
20278;DHT22;10298;49.716;17.806;2022-07-22T10:52:11;29.40;99.90
20278;DHT22;10298;49.716;17.806;2022-07-22T10:57:43;29.50;99.90
20278;DHT22;10298;49.716;17.806;2022-07-22T11:00:10;29.30;99.90
20278;DHT22;10298;49.716;17.806;2022-07-22T11:02:37;29.10;99.90
20278;DHT22;10298;49.716;17.806;2022-07-22T11:05:05;29.60;99.90
20278;DHT22;10298;49.716;17.806;2022-07-22T11:07:32;29.10;99.90
20278;DHT22;10298;49.716;17.806;2022-07-22T11:10:18;29.50;99.90
20278;DHT22;10298;49.716;17.806;2022-07-22T11:12:48;30.30;99.90
20278;DHT22;10298;49.716;17.806;2022-07-22T11:15:15;30.40;99.90
20278;DHT22;10298;49.716;17.806;2022-07-22T11:17:43;30.60;98.40
20278;DHT22;10298;49.716;17.806;2022-07-22T11:20:12;30.30;99.20
20278;DHT22;10298;49.716;17.806;2022-07-22T11:22:40;29.90;97.30
20278;DHT22;10298;49.716;17.806;2022-07-22T11:25:08;30.30;97.30
20278;DHT22;10298;49.716;17.806;2022-07-22T11:27:36;29.70;96.40
20278;DHT22;10298;49.716;17.806;2022-07-22T11:30:04;30.00;99.00
20278;DHT22;10298;49.716;17.806;2022-07-22T11:32:32;30.80;99.00
20278;DHT22;10298;49.716;17.806;2022-07-22T11:35:00;30.90;95.70
20278;DHT22;10298;49.716;17.806;2022-07-22T11:37:28;30.60;95.30
20278;DHT22;10298;49.716;17.806;2022-07-22T11:40:05;30.90;96.40
20278;DHT22;10298;49.716;17.806;2022-07-22T11:42:32;30.70;95.40
20278;DHT22;10298;49.716;17.806;2022-07-22T11:44:59;31.10;95.20
20278;DHT22;10298;49.716;17.806;2022-07-22T11:47:26;31.10;92.10
20278;DHT22;10298;49.716;17.806;2022-07-22T11:49:53;31.20;95.40
20278;DHT22;10298;49.716;17.806;2022-07-22T11:52:20;31.60;94.80
20278;DHT22;10298;49.716;17.806;2022-07-22T11:54:47;31.50;93.10
20278;DHT22;10298;49.716;17.806;2022-07-22T11:57:15;31.80;95.80
20278;DHT22;10298;49.716;17.806;2022-07-22T11:59:42;31.50;93.20
20278;DHT22;10298;49.716;17.806;2022-07-22T12:02:10;31.80;94.10
20278;DHT22;10298;49.716;17.806;2022-07-22T12:04:40;31.50;95.00
20278;DHT22;10298;49.716;17.806;2022-07-22T12:07:10;31.30;90.80
20278;DHT22;10298;49.716;17.806;2022-07-22T12:09:38;30.90;93.40
20278;DHT22;10298;49.716;17.806;2022-07-22T12:12:05;31.30;91.90
20278;DHT22;10298;49.716;17.806;2022-07-22T12:14:34;31.60;96.20
20278;DHT22;10298;49.716;17.806;2022-07-22T12:17:09;32.00;95.70
20278;DHT22;10298;49.716;17.806;2022-07-22T12:19:38;32.10;93.90
20278;DHT22;10298;49.716;17.806;2022-07-22T12:22:20;32.00;92.30
20278;DHT22;10298;49.716;17.806;2022-07-22T12:24:58;31.60;92.30
20278;DHT22;10298;49.716;17.806;2022-07-22T12:27:29;31.70;91.00
20278;DHT22;10298;49.716;17.806;2022-07-22T12:29:57;31.20;90.00
20278;DHT22;10298;49.716;17.806;2022-07-22T12:32:25;31.10;90.40
20278;DHT22;10298;49.716;17.806;2022-07-22T12:34:58;31.50;91.00
20278;DHT22;10298;49.716;17.806;2022-07-22T12:37:27;31.30;92.20
20278;DHT22;10298;49.716;17.806;2022-07-22T12:40:08;31.90;93.30
20278;DHT22;10298;49.716;17.806;2022-07-22T12:43:03;32.10;90.10
20278;DHT22;10298;49.716;17.806;2022-07-22T12:45:32;31.80;90.00
20278;DHT22;10298;49.716;17.806;2022-07-22T12:53:09;30.90;88.50
20278;DHT22;10298;49.716;17.806;2022-07-22T12:55:49;31.30;90.80
20278;DHT22;10298;49.716;17.806;2022-07-22T12:58:27;31.40;92.00
20278;DHT22;10298;49.716;17.806;2022-07-22T13:00:57;31.40;91.40
20278;DHT22;10298;49.716;17.806;2022-07-22T13:03:25;31.60;91.10
20278;DHT22;10298;49.716;17.806;2022-07-22T13:05:55;31.90;92.20
20278;DHT22;10298;49.716;17.806;2022-07-22T13:08:22;32.10;90.10
20278;DHT22;10298;49.716;17.806;2022-07-22T13:10:53;32.00;87.50
20278;DHT22;10298;49.716;17.806;2022-07-22T13:13:21;31.80;90.30
20278;DHT22;10298;49.716;17.806;2022-07-22T13:15:49;31.80;86.50
20278;DHT22;10298;49.716;17.806;2022-07-22T13:18:17;31.60;84.90
20278;DHT22;10298;49.716;17.806;2022-07-22T13:20:44;31.80;85.60
20278;DHT22;10298;49.716;17.806;2022-07-22T13:23:11;31.90;84.30
20278;DHT22;10298;49.716;17.806;2022-07-22T13:25:38;31.80;85.00
20278;DHT22;10298;49.716;17.806;2022-07-22T13:28:05;31.60;86.50
20278;DHT22;10298;49.716;17.806;2022-07-22T13:30:32;31.60;87.90
20278;DHT22;10298;49.716;17.806;2022-07-22T13:32:59;31.90;86.10
20278;DHT22;10298;49.716;17.806;2022-07-22T13:35:26;31.50;82.00
20278;DHT22;10298;49.716;17.806;2022-07-22T13:37:53;31.50;79.00
20278;DHT22;10298;49.716;17.806;2022-07-22T13:40:20;31.60;85.90
20278;DHT22;10298;49.716;17.806;2022-07-22T13:42:47;31.50;85.20
20278;DHT22;10298;49.716;17.806;2022-07-22T13:45:13;31.40;84.90
20278;DHT22;10298;49.716;17.806;2022-07-22T13:47:41;31.40;84.90
20278;DHT22;10298;49.716;17.806;2022-07-22T13:50:08;31.40;83.00
20278;DHT22;10298;49.716;17.806;2022-07-22T13:52:35;31.30;81.20
20278;DHT22;10298;49.716;17.806;2022-07-22T13:55:03;31.30;79.30
20278;DHT22;10298;49.716;17.806;2022-07-22T13:57:30;31.30;80.10
20278;DHT22;10298;49.716;17.806;2022-07-22T13:59:57;31.40;81.40
20278;DHT22;10298;49.716;17.806;2022-07-22T14:02:24;31.30;81.80
20278;DHT22;10298;49.716;17.806;2022-07-22T14:04:51;30.70;82.00
20278;DHT22;10298;49.716;17.806;2022-07-22T14:07:18;30.90;83.90
20278;DHT22;10298;49.716;17.806;2022-07-22T14:09:45;30.90;82.40
20278;DHT22;10298;49.716;17.806;2022-07-22T14:12:12;30.70;83.40
20278;DHT22;10298;49.716;17.806;2022-07-22T14:14:39;30.50;84.30
20278;DHT22;10298;49.716;17.806;2022-07-22T14:17:06;31.00;80.80
20278;DHT22;10298;49.716;17.806;2022-07-22T14:19:33;30.90;81.20
20278;DHT22;10298;49.716;17.806;2022-07-22T14:22:00;31.10;82.00
20278;DHT22;10298;49.716;17.806;2022-07-22T14:24:27;30.70;83.40
20278;DHT22;10298;49.716;17.806;2022-07-22T14:26:54;30.70;81.90
20278;DHT22;10298;49.716;17.806;2022-07-22T14:29:21;30.70;83.60
20278;DHT22;10298;49.716;17.806;2022-07-22T14:31:49;30.50;84.30
20278;DHT22;10298;49.716;17.806;2022-07-22T14:34:16;30.40;84.60
20278;DHT22;10298;49.716;17.806;2022-07-22T14:36:44;30.50;85.40
20278;DHT22;10298;49.716;17.806;2022-07-22T14:39:11;30.50;82.70
20278;DHT22;10298;49.716;17.806;2022-07-22T14:41:38;30.90;81.60
20278;DHT22;10298;49.716;17.806;2022-07-22T14:44:05;31.00;84.30
20278;DHT22;10298;49.716;17.806;2022-07-22T14:46:32;30.70;82.70
20278;DHT22;10298;49.716;17.806;2022-07-22T14:49:00;30.80;79.30
20278;DHT22;10298;49.716;17.806;2022-07-22T14:51:27;30.90;82.40
20278;DHT22;10298;49.716;17.806;2022-07-22T14:53:54;30.70;80.60
20278;DHT22;10298;49.716;17.806;2022-07-22T14:56:21;30.90;81.80
20278;DHT22;10298;49.716;17.806;2022-07-22T14:58:48;30.70;80.90
20278;DHT22;10298;49.716;17.806;2022-07-22T15:01:15;30.70;82.70
20278;DHT22;10298;49.716;17.806;2022-07-22T15:03:42;30.50;82.90
20278;DHT22;10298;49.716;17.806;2022-07-22T15:06:09;30.50;86.10
20278;DHT22;10298;49.716;17.806;2022-07-22T15:08:37;30.60;86.20
20278;DHT22;10298;49.716;17.806;2022-07-22T15:11:04;30.40;86.50
20278;DHT22;10298;49.716;17.806;2022-07-22T15:13:31;30.40;86.20
20278;DHT22;10298;49.716;17.806;2022-07-22T15:15:58;30.30;88.00
20278;DHT22;10298;49.716;17.806;2022-07-22T15:18:26;30.30;85.30
20278;DHT22;10298;49.716;17.806;2022-07-22T15:20:53;30.40;84.10
20278;DHT22;10298;49.716;17.806;2022-07-22T15:23:24;30.40;85.30
20278;DHT22;10298;49.716;17.806;2022-07-22T15:25:58;30.30;84.70
20278;DHT22;10298;49.716;17.806;2022-07-22T15:28:26;30.10;86.30
20278;DHT22;10298;49.716;17.806;2022-07-22T15:31:01;29.90;86.90
20278;DHT22;10298;49.716;17.806;2022-07-22T15:33:29;29.80;86.60
20278;DHT22;10298;49.716;17.806;2022-07-22T15:36:07;29.30;86.20
20278;DHT22;10298;49.716;17.806;2022-07-22T15:38:37;29.50;87.20
20278;DHT22;10298;49.716;17.806;2022-07-22T15:41:04;29.20;87.70